Terminal Aerodrome Forecast
Issued by NWS

Home | Current Version | Previous Version | Text Only | Print | Product List | Glossary Off
Versions: 1 2 3 4 5 6 7 8 9 10 11 12 13 14 15 16 17

000
FTUS43 KGRB 201731
TAFRHI
TAF
KRHI 201731Z 2018/2118 20012G18KT P6SM SCT035
     FM210200 19006KT P6SM SCT120
     FM210600 21006KT 5SM BR SCT005 SCT120
      TEMPO 2108/2112 3SM BR BKN004
     FM211200 22008KT 6SM BR SCT004 BKN100
     FM211600 24009KT P6SM SCT015=

USA.gov is the U.S. government's official web portal to all federal, state and local government web resources and services.